createdAt,value
2023-05-08T00:06:14.428Z,13.05
2023-05-08T00:16:18.710Z,12.93
2023-05-08T00:26:21.979Z,12.79
2023-05-08T00:36:26.112Z,12.60
2023-05-08T00:46:29.020Z,12.60
2023-05-08T00:56:34.761Z,12.57
2023-05-08T01:06:38.121Z,12.52
2023-05-08T01:16:46.136Z,12.30
2023-05-08T01:27:23.214Z,12.27
2023-05-08T01:37:32.959Z,12.18
2023-05-08T01:47:39.023Z,12.06
2023-05-08T01:57:48.266Z,11.92
2023-05-08T02:07:52.361Z,11.83
2023-05-08T02:17:56.968Z,11.57
2023-05-08T02:28:00.172Z,11.47
2023-05-08T02:38:10.548Z,11.38
2023-05-08T02:48:17.321Z,11.12
2023-05-08T02:58:26.215Z,10.98
2023-05-08T03:08:33.888Z,10.95
2023-05-08T03:18:44.263Z,10.86
2023-05-08T03:28:49.670Z,10.80
2023-05-08T03:38:53.881Z,10.72
2023-05-08T03:48:57.192Z,10.59
2023-05-08T03:59:09.130Z,10.75
2023-05-08T04:09:18.322Z,10.85
2023-05-08T04:19:25.950Z,10.93
2023-05-08T04:29:29.427Z,11.10
2023-05-08T04:39:33.501Z,11.27
2023-05-08T04:49:36.450Z,11.66
2023-05-08T04:59:40.626Z,11.90
2023-05-08T05:09:43.301Z,12.08
2023-05-08T05:19:47.288Z,11.87
2023-05-08T05:29:51.686Z,11.74
2023-05-08T05:39:55.654Z,11.73
2023-05-08T05:49:58.845Z,11.93
2023-05-08T06:00:04.116Z,12.06
2023-05-08T06:10:08.326Z,12.25
2023-05-08T06:20:13.664Z,12.61
2023-05-08T06:30:16.475Z,12.82
2023-05-08T06:40:20.780Z,13.10
2023-05-08T06:50:23.627Z,13.36
2023-05-08T07:00:28.022Z,13.60
2023-05-08T07:10:30.735Z,13.80
2023-05-08T07:20:35.471Z,14.12
2023-05-08T07:30:38.313Z,14.35
2023-05-08T07:40:42.315Z,14.72
2023-05-08T07:50:45.796Z,14.94
2023-05-08T08:00:49.855Z,15.26
2023-05-08T08:10:52.774Z,15.51
2023-05-08T08:20:56.922Z,15.95
2023-05-08T08:30:59.716Z,16.26
2023-05-08T08:41:03.956Z,16.69
2023-05-08T08:51:11.388Z,16.93
2023-05-08T09:01:18.851Z,17.15
2023-05-08T09:11:21.526Z,17.39
2023-05-08T09:21:25.774Z,17.90
2023-05-08T09:31:35.795Z,18.24
2023-05-08T09:41:40.753Z,18.63
2023-05-08T09:51:53.176Z,18.85
2023-05-08T10:01:58.089Z,19.14
2023-05-08T10:12:00.746Z,19.25
2023-05-08T10:22:05.977Z,19.81
2023-05-08T10:32:11.450Z,20.03
2023-05-08T10:42:15.499Z,20.47
2023-05-08T10:52:23.726Z,20.81
2023-05-08T11:02:36.749Z,21.70
2023-05-08T11:12:40.926Z,21.99
2023-05-08T11:22:49.493Z,22.67
2023-05-08T11:33:16.696Z,27.69
2023-05-08T11:43:27.729Z,26.53
2023-05-08T11:53:31.412Z,26.28
2023-05-08T12:03:35.670Z,25.53
2023-05-08T12:13:38.445Z,26.75
2023-05-08T12:23:42.463Z,29.86
2023-05-08T12:33:45.779Z,31.26
2023-05-08T12:43:50.052Z,31.59
2023-05-08T12:53:52.675Z,33.29
2023-05-08T13:04:02.272Z,35.20
2023-05-08T13:14:05.734Z,35.74
2023-05-08T13:24:09.806Z,34.76
2023-05-08T13:34:12.434Z,34.59
2023-05-08T13:44:16.444Z,32.22
2023-05-08T13:54:19.145Z,31.18
2023-05-08T14:04:23.139Z,30.82
2023-05-08T14:14:25.934Z,28.55
2023-05-08T14:24:29.905Z,30.82
2023-05-08T14:34:32.591Z,30.02
2023-05-08T14:44:36.588Z,29.74
2023-05-08T14:54:39.597Z,27.89
2023-05-08T15:04:45.867Z,27.70
2023-05-08T15:14:49.025Z,28.11
2023-05-08T15:24:53.963Z,28.01
2023-05-08T15:34:56.841Z,28.11
2023-05-08T15:45:01.634Z,26.79
2023-05-08T15:55:04.571Z,27.01
2023-05-08T16:05:09.769Z,26.85
2023-05-08T16:15:12.636Z,26.43
2023-05-08T16:25:16.803Z,26.22
2023-05-08T16:35:20.045Z,25.76
2023-05-08T16:45:24.313Z,25.36
2023-05-08T16:55:27.324Z,24.98
2023-05-08T17:05:31.568Z,24.65
2023-05-08T17:15:34.240Z,24.36
2023-05-08T17:25:38.236Z,24.14
2023-05-08T17:35:40.894Z,23.76
2023-05-08T17:45:45.742Z,24.11
2023-05-08T17:55:48.399Z,23.99
2023-05-08T18:05:52.425Z,23.89
2023-05-08T18:15:55.122Z,24.15
2023-05-08T18:25:59.140Z,23.77
2023-05-08T18:36:01.875Z,23.51
2023-05-08T18:46:14.143Z,22.82
2023-05-08T18:56:16.961Z,22.57
2023-05-08T19:06:21.242Z,22.49
2023-05-08T19:16:24.352Z,21.89
2023-05-08T19:26:28.984Z,21.25
2023-05-08T19:36:32.419Z,21.01
2023-05-08T19:46:37.036Z,21.03
2023-05-08T19:56:39.776Z,20.66
2023-05-08T20:06:43.813Z,20.43
2023-05-08T20:16:46.747Z,20.33
2023-05-08T20:26:54.160Z,20.15
2023-05-08T20:36:59.008Z,20.01
2023-05-08T20:47:03.077Z,19.84
2023-05-08T20:57:05.742Z,19.67
2023-05-08T21:07:09.742Z,19.41
2023-05-08T21:17:12.449Z,19.15
2023-05-08T21:27:16.465Z,19.00
2023-05-08T21:37:19.128Z,18.89
2023-05-08T21:47:23.595Z,18.81
2023-05-08T21:57:26.313Z,18.70
2023-05-08T22:07:30.401Z,18.56
2023-05-08T22:17:33.094Z,18.37
2023-05-08T22:27:37.148Z,18.20
2023-05-08T22:37:39.842Z,17.87
2023-05-08T22:47:44.036Z,17.69
2023-05-08T22:57:46.964Z,17.69
2023-05-08T23:07:50.953Z,17.48
2023-05-08T23:17:53.646Z,17.39
2023-05-08T23:27:57.740Z,17.40
2023-05-08T23:38:00.431Z,17.28
2023-05-08T23:48:04.831Z,17.20
2023-05-08T23:58:07.477Z,17.06
